createdAt,value
2019-04-25T00:00:36.674Z,9.17
2019-04-25T00:03:06.789Z,9.60
2019-04-25T00:05:38.717Z,9.63
2019-04-25T00:08:09.242Z,10.10
2019-04-25T00:10:39.242Z,9.70
2019-04-25T00:13:09.250Z,10.13
2019-04-25T00:15:39.957Z,9.67
2019-04-25T00:18:09.991Z,9.80
2019-04-25T00:20:43.601Z,10.10
2019-04-25T00:23:16.594Z,9.93
2019-04-25T00:26:21.146Z,9.77
2019-04-25T00:28:52.388Z,10.37
2019-04-25T00:31:22.812Z,10.77
2019-04-25T00:33:53.358Z,10.13
2019-04-25T00:36:23.153Z,11.17
2019-04-25T00:38:53.298Z,10.40
2019-04-25T00:41:23.038Z,10.67
2019-04-25T00:43:52.966Z,10.53
2019-04-25T00:46:22.876Z,11.87
2019-04-25T00:48:52.744Z,11.27
2019-04-25T00:51:22.649Z,10.47
2019-04-25T00:53:54.723Z,11.07
2019-04-25T00:56:23.752Z,10.90
2019-04-25T00:59:05.669Z,11.07
2019-04-25T01:01:57.247Z,11.47
2019-04-25T01:04:29.110Z,11.17
2019-04-25T01:06:58.954Z,10.27
2019-04-25T01:09:29.091Z,12.20
2019-04-25T01:11:59.095Z,11.57
2019-04-25T01:14:28.982Z,10.87
2019-04-25T01:16:58.868Z,11.90
2019-04-25T01:19:29.850Z,10.30
2019-04-25T01:21:59.826Z,11.50
2019-04-25T01:24:29.615Z,11.57
2019-04-25T01:26:59.636Z,11.10
2019-04-25T01:29:29.476Z,9.87
2019-04-25T01:31:59.324Z,11.43
2019-04-25T01:34:44.173Z,11.20
2019-04-25T01:37:31.452Z,12.00
2019-04-25T01:40:18.850Z,10.63
2019-04-25T01:43:16.752Z,11.17
2019-04-25T01:45:48.106Z,11.60
2019-04-25T01:48:18.216Z,10.30
2019-04-25T01:50:49.341Z,11.47
2019-04-25T01:53:19.496Z,11.13
2019-04-25T01:55:55.840Z,10.73
2019-04-25T01:58:21.222Z,12.30
2019-04-25T02:00:54.563Z,11.47
2019-04-25T02:03:27.021Z,10.70
2019-04-25T02:05:56.154Z,11.70
2019-04-25T02:08:26.986Z,10.90
2019-04-25T02:11:14.421Z,11.50
2019-04-25T02:13:44.194Z,12.43
2019-04-25T02:16:14.274Z,12.80
2019-04-25T02:18:44.152Z,13.17
2019-04-25T02:21:14.029Z,12.37
2019-04-25T02:23:44.302Z,12.43
2019-04-25T02:26:17.919Z,12.87
2019-04-25T02:28:45.543Z,12.77
2019-04-25T02:31:18.303Z,12.53
2019-04-25T02:33:47.121Z,13.00
2019-04-25T02:36:17.035Z,12.10
2019-04-25T02:38:47.002Z,12.80
2019-04-25T02:41:16.991Z,13.90
2019-04-25T02:43:46.807Z,13.67
2019-04-25T02:46:34.823Z,14.57
2019-04-25T02:49:32.711Z,14.60
2019-04-25T02:52:06.926Z,13.80
2019-04-25T02:54:35.003Z,13.30
2019-04-25T02:57:07.794Z,14.30
2019-04-25T02:59:37.068Z,14.73
2019-04-25T03:02:09.355Z,14.63
2019-04-25T03:04:39.269Z,14.70
2019-04-25T03:07:11.245Z,15.80
2019-04-25T03:09:42.080Z,15.43
2019-04-25T03:12:26.772Z,14.83
2019-04-25T03:14:44.609Z,16.00
2019-04-25T03:17:14.903Z,16.07
2019-04-25T03:20:08.044Z,15.80
2019-04-25T03:22:36.565Z,14.77
2019-04-25T03:25:11.587Z,14.60
2019-04-25T03:27:39.557Z,15.17
2019-04-25T03:30:13.725Z,13.97
2019-04-25T03:32:44.807Z,15.17
2019-04-25T03:35:14.473Z,14.97
2019-04-25T03:37:44.415Z,14.83
2019-04-25T03:40:14.377Z,15.37
2019-04-25T03:42:44.300Z,15.17
2019-04-25T03:45:14.902Z,15.43
2019-04-25T03:47:44.963Z,14.87
2019-04-25T03:50:14.747Z,13.70
2019-04-25T03:52:44.804Z,13.57
2019-04-25T03:55:15.835Z,12.80
2019-04-25T03:57:45.620Z,13.13
2019-04-25T04:00:15.538Z,13.67
2019-04-25T04:02:45.510Z,12.50
2019-04-25T04:05:15.279Z,12.77
2019-04-25T04:07:45.187Z,12.80
2019-04-25T04:10:16.350Z,12.67
2019-04-25T04:12:46.266Z,11.97
2019-04-25T04:15:17.157Z,12.07
2019-04-25T04:18:08.665Z,10.90
2019-04-25T04:21:09.363Z,10.50
2019-04-25T04:23:48.272Z,11.20
2019-04-25T04:26:18.273Z,11.67
2019-04-25T04:28:48.234Z,12.27
2019-04-25T04:31:18.105Z,10.93
2019-04-25T04:33:47.970Z,10.70
2019-04-25T04:36:18.988Z,12.40
2019-04-25T04:38:49.922Z,11.23
2019-04-25T04:41:19.488Z,11.00
2019-04-25T04:43:49.003Z,11.10
2019-04-25T04:46:19.788Z,11.10
2019-04-25T04:48:49.320Z,11.40
2019-04-25T04:51:19.015Z,11.73
2019-04-25T04:53:49.967Z,11.90
2019-04-25T04:56:19.657Z,11.20
2019-04-25T04:58:49.401Z,11.33
2019-04-25T05:01:20.895Z,12.63
2019-04-25T05:04:01.114Z,12.70
2019-04-25T05:06:35.888Z,12.53
2019-04-25T05:09:19.775Z,13.63
2019-04-25T05:11:49.940Z,14.70
2019-04-25T05:14:19.681Z,13.93
2019-04-25T05:16:49.705Z,15.17
2019-04-25T05:19:20.756Z,14.33
2019-04-25T05:21:53.593Z,12.67
2019-04-25T05:24:24.982Z,13.47
2019-04-25T05:26:54.941Z,13.33
2019-04-25T05:29:26.716Z,13.83
2019-04-25T05:31:57.704Z,13.03
2019-04-25T05:34:27.648Z,13.77
2019-04-25T05:36:57.338Z,11.80
2019-04-25T05:39:27.398Z,12.07
2019-04-25T05:42:17.170Z,12.20
2019-04-25T05:44:47.422Z,12.47
2019-04-25T05:47:20.066Z,11.17
2019-04-25T05:49:48.861Z,12.13
2019-04-25T05:52:18.811Z,13.97
2019-04-25T05:54:48.359Z,11.50
2019-04-25T05:57:18.184Z,12.53
2019-04-25T05:59:48.034Z,13.97
2019-04-25T06:02:17.925Z,13.97
2019-04-25T06:04:47.747Z,12.67
2019-04-25T06:07:19.384Z,12.07
2019-04-25T06:09:56.855Z,10.00
2019-04-25T06:12:37.972Z,10.87
2019-04-25T06:15:08.087Z,11.23
2019-04-25T06:17:56.943Z,13.20
2019-04-25T06:20:30.107Z,10.73
2019-04-25T06:23:06.679Z,10.90
2019-04-25T06:25:39.874Z,10.53
2019-04-25T06:28:11.030Z,32.73
2019-04-25T06:30:40.984Z,13.07
2019-04-25T06:33:10.886Z,9.73
2019-04-25T06:35:40.606Z,11.00
2019-04-25T06:38:10.357Z,12.60
2019-04-25T06:40:40.124Z,10.07
2019-04-25T06:43:09.945Z,9.87
2019-04-25T06:45:58.721Z,10.90
2019-04-25T06:48:45.530Z,11.37
2019-04-25T06:51:15.958Z,11.77
2019-04-25T06:53:45.747Z,10.43
2019-04-25T06:56:15.695Z,10.90
2019-04-25T06:58:45.748Z,10.97
2019-04-25T07:01:15.597Z,10.03
2019-04-25T07:03:45.459Z,11.20
2019-04-25T07:06:15.598Z,10.17
2019-04-25T07:08:45.267Z,10.67
2019-04-25T07:11:16.439Z,10.20
2019-04-25T07:13:46.298Z,9.60
2019-04-25T07:16:16.025Z,10.20
2019-04-25T07:18:46.105Z,10.67
2019-04-25T07:21:15.955Z,8.87
2019-04-25T07:23:46.359Z,8.60
2019-04-25T07:26:30.408Z,8.53
2019-04-25T07:29:13.437Z,10.13
2019-04-25T07:32:09.089Z,10.73
2019-04-25T07:34:38.957Z,9.60
2019-04-25T07:37:09.841Z,9.83
2019-04-25T07:39:39.653Z,9.77
2019-04-25T07:42:09.669Z,11.40
2019-04-25T07:44:49.922Z,9.97
2019-04-25T07:47:10.893Z,9.07
2019-04-25T07:49:40.874Z,8.40
2019-04-25T07:52:11.589Z,8.60
2019-04-25T07:54:43.920Z,7.10
2019-04-25T07:57:13.718Z,9.73
2019-04-25T07:59:43.719Z,8.00
2019-04-25T08:02:13.611Z,8.23
2019-04-25T08:04:44.322Z,8.00
2019-04-25T08:07:15.810Z,8.53
2019-04-25T08:09:45.642Z,6.83
2019-04-25T08:12:15.657Z,8.00
2019-04-25T08:14:54.690Z,8.77
2019-04-25T08:17:44.061Z,7.60
2019-04-25T08:20:15.233Z,9.20
2019-04-25T08:22:55.745Z,8.43
2019-04-25T08:25:17.227Z,7.77
2019-04-25T08:27:47.312Z,7.43
2019-04-25T08:30:17.428Z,8.63
2019-04-25T08:32:48.154Z,9.73
2019-04-25T08:35:17.945Z,9.63
2019-04-25T08:37:47.936Z,10.80
2019-04-25T08:40:18.889Z,8.43
2019-04-25T08:42:48.776Z,9.60
2019-04-25T08:45:18.987Z,10.10
2019-04-25T08:47:48.771Z,13.97
2019-04-25T08:50:37.242Z,14.07
2019-04-25T08:53:05.403Z,7.90
2019-04-25T08:56:06.824Z,9.10
2019-04-25T08:59:10.779Z,8.20
2019-04-25T09:02:03.481Z,10.30
2019-04-25T09:04:54.019Z,8.77
2019-04-25T09:07:24.166Z,9.20
2019-04-25T09:09:53.951Z,12.67
2019-04-25T09:12:24.104Z,10.10
2019-04-25T09:14:54.255Z,9.40
2019-04-25T09:17:24.407Z,10.27
2019-04-25T09:19:54.400Z,8.50
2019-04-25T09:22:24.337Z,9.10
2019-04-25T09:24:54.180Z,10.30
2019-04-25T09:27:24.141Z,8.93
2019-04-25T09:29:54.261Z,8.30
2019-04-25T09:32:24.363Z,7.90
2019-04-25T09:34:55.438Z,8.10
2019-04-25T09:37:25.107Z,9.67
2019-04-25T09:40:08.503Z,7.57
2019-04-25T09:42:39.373Z,8.07
2019-04-25T09:45:28.401Z,8.57
2019-04-25T09:48:00.953Z,8.93
2019-04-25T09:50:53.360Z,8.43
2019-04-25T09:53:23.826Z,9.13
2019-04-25T09:56:01.058Z,8.83
2019-04-25T09:58:47.004Z,8.80
2019-04-25T10:01:17.389Z,9.60
2019-04-25T10:03:48.138Z,11.60
2019-04-25T10:06:19.843Z,10.00
2019-04-25T10:08:49.739Z,8.60
2019-04-25T10:11:19.422Z,7.03
2019-04-25T10:14:05.447Z,10.13
2019-04-25T10:16:35.221Z,8.57
2019-04-25T10:19:05.141Z,7.60
2019-04-25T10:21:35.475Z,8.37
2019-04-25T10:24:05.444Z,6.90
2019-04-25T10:26:35.212Z,7.50
2019-04-25T10:29:05.279Z,7.63
2019-04-25T10:31:34.946Z,7.77
2019-04-25T10:34:04.907Z,7.27
2019-04-25T10:36:34.630Z,8.17
2019-04-25T10:39:10.293Z,8.17
2019-04-25T10:41:39.770Z,7.50
2019-04-25T10:44:09.611Z,6.63
2019-04-25T10:46:40.181Z,7.90
2019-04-25T10:49:10.005Z,8.60
2019-04-25T10:51:39.896Z,7.60
2019-04-25T10:54:10.521Z,7.40
2019-04-25T10:56:41.653Z,8.43
2019-04-25T10:59:11.426Z,7.70
2019-04-25T11:01:41.308Z,8.20
2019-04-25T11:04:33.172Z,7.93
2019-04-25T11:07:03.772Z,8.20
2019-04-25T11:09:34.282Z,7.60
2019-04-25T11:12:04.736Z,7.70
2019-04-25T11:14:34.660Z,8.30
2019-04-25T11:17:06.040Z,8.03
2019-04-25T11:19:37.242Z,7.57
2019-04-25T11:22:07.755Z,8.27
2019-04-25T11:24:38.967Z,8.77
2019-04-25T11:27:08.843Z,8.23
2019-04-25T11:29:39.177Z,6.33
2019-04-25T11:32:09.092Z,6.40
2019-04-25T11:34:39.120Z,7.13
2019-04-25T11:37:08.831Z,7.73
2019-04-25T11:39:58.946Z,6.90
2019-04-25T11:42:29.121Z,8.03
2019-04-25T11:44:58.920Z,7.30
2019-04-25T11:47:29.106Z,6.43
2019-04-25T11:49:58.915Z,6.17
2019-04-25T11:52:30.323Z,6.63
2019-04-25T11:55:00.214Z,6.03
2019-04-25T11:57:31.297Z,7.60
2019-04-25T12:00:01.156Z,6.00
2019-04-25T12:02:30.912Z,6.47
2019-04-25T12:05:00.798Z,6.30
2019-04-25T12:07:30.508Z,5.90
2019-04-25T12:10:00.373Z,7.53
2019-04-25T12:12:30.384Z,6.57
2019-04-25T12:15:00.258Z,5.80
2019-04-25T12:17:30.203Z,5.73
2019-04-25T12:20:00.017Z,7.10
2019-04-25T12:22:31.175Z,6.73
2019-04-25T12:25:02.233Z,7.10
2019-04-25T12:27:32.158Z,6.20
2019-04-25T12:30:03.898Z,6.93
2019-04-25T12:32:35.181Z,6.63
2019-04-25T12:35:06.161Z,6.30
2019-04-25T12:37:36.362Z,5.50
2019-04-25T12:40:07.395Z,6.20
2019-04-25T12:42:37.259Z,6.47
2019-04-25T12:45:24.237Z,5.97
2019-04-25T12:47:57.267Z,5.93
2019-04-25T12:50:25.657Z,6.97
2019-04-25T12:52:56.080Z,5.90
2019-04-25T12:55:25.911Z,6.00
2019-04-25T12:57:56.569Z,6.63
2019-04-25T13:00:27.443Z,7.10
2019-04-25T13:02:58.763Z,6.40
2019-04-25T13:05:28.545Z,7.17
2019-04-25T13:07:59.728Z,7.23
2019-04-25T13:10:29.955Z,6.17
2019-04-25T13:12:59.866Z,8.87
2019-04-25T13:15:29.725Z,7.27
2019-04-25T13:17:59.653Z,8.13
2019-04-25T13:20:29.585Z,10.87
2019-04-25T13:23:00.510Z,9.23
2019-04-25T13:25:30.531Z,6.07
2019-04-25T13:28:17.493Z,6.03
2019-04-25T13:31:12.109Z,6.67
2019-04-25T13:33:55.046Z,6.50
2019-04-25T13:36:24.865Z,6.87
2019-04-25T13:38:54.681Z,6.90
2019-04-25T13:41:24.766Z,6.57
2019-04-25T13:43:54.803Z,6.53
2019-04-25T13:46:26.186Z,6.00
2019-04-25T13:48:56.141Z,9.07
2019-04-25T13:51:26.152Z,7.23
2019-04-25T13:53:56.028Z,6.70
2019-04-25T13:56:27.163Z,6.63
2019-04-25T13:58:57.302Z,6.60
2019-04-25T14:01:27.640Z,6.83
2019-04-25T14:03:57.516Z,6.80
2019-04-25T14:06:27.122Z,7.47
2019-04-25T14:08:56.919Z,7.27
2019-04-25T14:11:26.850Z,7.67
2019-04-25T14:13:56.717Z,7.10
2019-04-25T14:16:51.622Z,7.90
2019-04-25T14:19:54.175Z,7.53
2019-04-25T14:22:25.206Z,6.80
2019-04-25T14:24:55.211Z,7.43
2019-04-25T14:27:28.044Z,9.00
2019-04-25T14:29:58.363Z,7.50
2019-04-25T14:32:28.900Z,8.40
2019-04-25T14:34:59.926Z,6.87
2019-04-25T14:37:35.070Z,6.77
2019-04-25T14:40:04.074Z,7.13
2019-04-25T14:42:33.869Z,7.20
2019-04-25T14:45:05.013Z,7.33
2019-04-25T14:47:34.737Z,7.57
2019-04-25T14:50:04.777Z,7.03
2019-04-25T14:52:35.829Z,7.10
2019-04-25T14:55:24.768Z,7.80
2019-04-25T14:57:55.499Z,7.97
2019-04-25T15:00:31.436Z,8.33
2019-04-25T15:03:01.063Z,8.47
2019-04-25T15:05:31.002Z,6.70
2019-04-25T15:08:00.837Z,7.60
2019-04-25T15:10:30.797Z,7.67
2019-04-25T15:13:00.650Z,8.33
2019-04-25T15:15:31.817Z,8.30
2019-04-25T15:18:01.904Z,9.17
2019-04-25T15:20:32.331Z,9.17
2019-04-25T15:23:01.991Z,10.03
2019-04-25T15:25:31.882Z,8.93
2019-04-25T15:28:01.667Z,9.73
2019-04-25T15:30:34.502Z,9.03
2019-04-25T15:33:04.596Z,9.70
2019-04-25T15:35:49.589Z,9.10
2019-04-25T15:38:25.578Z,9.37
2019-04-25T15:41:04.313Z,9.50
2019-04-25T15:43:41.959Z,10.03
2019-04-25T15:46:19.620Z,10.87
2019-04-25T15:48:49.334Z,11.97
2019-04-25T15:51:19.147Z,10.77
2019-04-25T15:53:48.915Z,10.50
2019-04-25T15:56:18.805Z,11.87
2019-04-25T15:58:48.600Z,11.77
2019-04-25T16:01:18.688Z,11.37
2019-04-25T16:03:48.458Z,10.93
2019-04-25T16:06:18.365Z,10.20
2019-04-25T16:08:49.622Z,11.30
2019-04-25T16:11:19.412Z,12.23
2019-04-25T16:13:49.331Z,11.20
2019-04-25T16:16:20.517Z,10.20
2019-04-25T16:18:50.302Z,10.67
2019-04-25T16:21:20.227Z,12.87
2019-04-25T16:23:51.400Z,12.17
2019-04-25T16:26:21.252Z,11.37
2019-04-25T16:28:50.986Z,10.43
2019-04-25T16:31:24.589Z,10.73
2019-04-25T16:33:55.536Z,12.20
2019-04-25T16:36:25.349Z,11.63
2019-04-25T16:38:55.251Z,12.67
2019-04-25T16:41:26.407Z,11.70
2019-04-25T16:44:00.541Z,13.53
2019-04-25T16:46:30.334Z,10.67
2019-04-25T16:49:01.515Z,12.60
2019-04-25T16:51:31.374Z,12.53
2019-04-25T16:54:01.216Z,12.57
2019-04-25T16:56:31.066Z,15.83
2019-04-25T16:59:01.113Z,12.93
2019-04-25T17:01:31.671Z,13.13
2019-04-25T17:04:01.645Z,15.00
2019-04-25T17:06:31.656Z,14.60
2019-04-25T17:09:01.328Z,16.47
2019-04-25T17:11:31.965Z,15.00
2019-04-25T17:14:20.602Z,18.17
2019-04-25T17:17:02.966Z,12.73
2019-04-25T17:19:55.550Z,13.00
2019-04-25T17:22:26.673Z,12.57
2019-04-25T17:24:56.330Z,14.07
2019-04-25T17:27:26.163Z,12.87
2019-04-25T17:29:56.429Z,14.33
2019-04-25T17:32:50.336Z,14.37
2019-04-25T17:35:31.899Z,13.70
2019-04-25T17:38:24.736Z,14.33
2019-04-25T17:40:54.520Z,14.40
2019-04-25T17:43:24.564Z,13.77
2019-04-25T17:45:54.347Z,13.63
2019-04-25T17:48:24.303Z,15.70
2019-04-25T17:50:54.184Z,16.63
2019-04-25T17:53:24.000Z,15.13
2019-04-25T17:55:53.744Z,16.03
2019-04-25T17:58:23.666Z,14.47
2019-04-25T18:00:53.436Z,14.33
2019-04-25T18:03:23.454Z,14.97
2019-04-25T18:05:53.456Z,14.27
2019-04-25T18:08:23.824Z,13.43
2019-04-25T18:10:55.105Z,13.87
2019-04-25T18:13:24.855Z,13.73
2019-04-25T18:16:25.833Z,15.73
2019-04-25T18:19:04.011Z,14.73
2019-04-25T18:21:35.874Z,14.63
2019-04-25T18:24:37.145Z,15.63
2019-04-25T18:27:13.521Z,14.57
2019-04-25T18:29:43.705Z,15.23
2019-04-25T18:32:14.895Z,14.87
2019-04-25T18:34:54.727Z,15.70
2019-04-25T18:37:42.835Z,14.80
2019-04-25T18:40:24.130Z,16.07
2019-04-25T18:43:25.919Z,15.27
2019-04-25T18:46:00.240Z,16.17
2019-04-25T18:48:31.494Z,15.43
2019-04-25T18:51:01.297Z,16.07
2019-04-25T18:54:05.219Z,16.63
2019-04-25T18:56:50.068Z,15.83
2019-04-25T18:59:39.547Z,16.87
2019-04-25T19:02:38.524Z,16.07
2019-04-25T19:05:38.667Z,16.87
2019-04-25T19:08:09.305Z,18.10
2019-04-25T19:10:40.785Z,17.87
2019-04-25T19:13:12.794Z,15.07
2019-04-25T19:15:43.112Z,14.97
2019-04-25T19:18:12.866Z,15.30
2019-04-25T19:20:43.936Z,16.20
2019-04-25T19:23:13.842Z,15.27
2019-04-25T19:25:43.792Z,14.27
2019-04-25T19:28:14.810Z,14.73
2019-04-25T19:30:45.099Z,15.83
2019-04-25T19:33:15.355Z,13.37
2019-04-25T19:35:46.415Z,13.67
2019-04-25T19:38:16.190Z,13.87
2019-04-25T19:41:04.845Z,14.07
2019-04-25T19:43:54.123Z,13.83
2019-04-25T19:46:38.134Z,14.53
2019-04-25T19:49:08.199Z,13.87
2019-04-25T19:51:38.116Z,13.80
2019-04-25T19:54:08.195Z,14.47
2019-04-25T19:56:37.956Z,14.53
2019-04-25T19:59:07.973Z,13.90
2019-04-25T20:01:39.039Z,14.10
2019-04-25T20:04:39.982Z,12.63
2019-04-25T20:07:19.699Z,12.80
2019-04-25T20:09:57.496Z,13.57
2019-04-25T20:12:33.175Z,13.30
2019-04-25T20:15:04.292Z,12.93
2019-04-25T20:17:34.224Z,12.07
2019-04-25T20:20:05.529Z,12.77
2019-04-25T20:22:35.288Z,13.07
2019-04-25T20:25:05.716Z,12.97
2019-04-25T20:27:35.688Z,12.97
2019-04-25T20:30:06.292Z,11.40
2019-04-25T20:32:36.161Z,12.73
2019-04-25T20:35:06.590Z,12.13
2019-04-25T20:37:36.357Z,13.20
2019-04-25T20:40:06.630Z,12.03
2019-04-25T20:42:36.452Z,12.90
2019-04-25T20:45:08.457Z,12.83
2019-04-25T20:47:38.422Z,11.53
2019-04-25T20:50:09.061Z,12.50
2019-04-25T20:52:38.960Z,13.37
2019-04-25T20:55:08.995Z,13.07
2019-04-25T20:57:38.752Z,14.40
2019-04-25T21:00:09.920Z,13.73
2019-04-25T21:02:39.695Z,14.20
2019-04-25T21:05:09.722Z,14.97
2019-04-25T21:07:40.652Z,13.90
2019-04-25T21:10:10.592Z,13.47
2019-04-25T21:12:40.361Z,13.43
2019-04-25T21:15:36.724Z,13.67
2019-04-25T21:18:14.430Z,15.63
2019-04-25T21:20:44.287Z,15.03
2019-04-25T21:23:13.936Z,18.10
2019-04-25T21:25:43.731Z,17.33
2019-04-25T21:28:14.604Z,17.50
2019-04-25T21:30:44.385Z,16.97
2019-04-25T21:33:14.107Z,17.07
2019-04-25T21:35:43.992Z,16.63
2019-04-25T21:38:15.437Z,18.17
2019-04-25T21:41:09.954Z,16.60
2019-04-25T21:43:44.623Z,16.43
2019-04-25T21:46:14.762Z,18.60
2019-04-25T21:48:44.644Z,17.03
2019-04-25T21:51:33.060Z,17.77
2019-04-25T21:54:03.925Z,18.60
2019-04-25T21:56:34.167Z,17.73
2019-04-25T21:59:04.255Z,18.30
2019-04-25T22:01:40.051Z,17.80
2019-04-25T22:04:09.921Z,16.67
2019-04-25T22:06:39.951Z,17.63
2019-04-25T22:09:15.230Z,18.47
2019-04-25T22:11:45.306Z,16.70
2019-04-25T22:14:16.251Z,18.47
2019-04-25T22:16:46.429Z,18.70
2019-04-25T22:19:16.428Z,19.27
2019-04-25T22:21:46.724Z,18.27
2019-04-25T22:24:16.981Z,18.27
2019-04-25T22:26:49.391Z,18.40
2019-04-25T22:29:19.110Z,17.30
2019-04-25T22:32:15.062Z,18.63
2019-04-25T22:34:55.435Z,17.73
2019-04-25T22:37:26.555Z,17.17
2019-04-25T22:39:56.599Z,18.83
2019-04-25T22:42:26.515Z,18.20
2019-04-25T22:44:57.690Z,19.13
2019-04-25T22:47:27.473Z,18.67
2019-04-25T22:49:57.317Z,18.03
2019-04-25T22:52:27.369Z,18.30
2019-04-25T22:54:57.209Z,19.00
2019-04-25T22:57:27.031Z,17.87
2019-04-25T22:59:56.844Z,18.20
2019-04-25T23:02:46.142Z,18.67
2019-04-25T23:05:28.837Z,18.07
2019-04-25T23:07:58.903Z,17.97
2019-04-25T23:10:29.069Z,17.20
2019-04-25T23:12:58.914Z,16.93
2019-04-25T23:15:28.805Z,17.23
2019-04-25T23:17:58.784Z,17.73
2019-04-25T23:20:28.446Z,15.43
2019-04-25T23:22:58.371Z,18.30
2019-04-25T23:25:34.263Z,18.20
2019-04-25T23:28:12.248Z,17.67
2019-04-25T23:31:13.336Z,18.50
2019-04-25T23:33:43.240Z,16.07
2019-04-25T23:36:13.238Z,17.53
2019-04-25T23:38:42.942Z,18.67
2019-04-25T23:41:13.601Z,18.83
2019-04-25T23:43:43.367Z,18.70
2019-04-25T23:46:14.182Z,21.53
2019-04-25T23:48:44.132Z,24.43
2019-04-25T23:51:14.060Z,27.17
2019-04-25T23:53:44.945Z,26.70
2019-04-25T23:56:15.272Z,28.13
2019-04-25T23:58:45.453Z,29.77
